createdAt,value
2018-08-13T00:01:11.678Z,28.76
2018-08-13T00:03:49.677Z,28.80
2018-08-13T00:06:26.642Z,28.83
2018-08-13T00:09:02.311Z,28.86
2018-08-13T00:11:40.742Z,28.89
2018-08-13T00:14:17.149Z,28.85
2018-08-13T00:16:52.957Z,28.72
2018-08-13T00:19:30.693Z,28.64
2018-08-13T00:22:07.128Z,28.63
2018-08-13T00:24:42.944Z,28.67
2018-08-13T00:27:23.668Z,28.72
2018-08-13T00:29:57.555Z,28.76
2018-08-13T00:32:34.690Z,28.81
2018-08-13T00:35:10.718Z,28.84
2018-08-13T00:37:50.374Z,28.87
2018-08-13T00:40:26.633Z,28.79
2018-08-13T00:43:03.942Z,28.68
2018-08-13T00:45:40.940Z,28.65
2018-08-13T00:48:18.137Z,28.65
2018-08-13T00:50:54.854Z,28.70
2018-08-13T00:53:28.868Z,28.74
2018-08-13T00:56:05.469Z,28.77
2018-08-13T00:58:41.371Z,28.79
2018-08-13T01:01:17.293Z,28.82
2018-08-13T01:03:53.685Z,28.82
2018-08-13T01:06:29.452Z,28.85
2018-08-13T01:09:06.461Z,28.92
2018-08-13T01:11:43.673Z,28.99
2018-08-13T01:14:19.585Z,29.02
2018-08-13T01:16:55.637Z,29.05
2018-08-13T01:19:33.152Z,29.09
2018-08-13T01:22:08.109Z,29.03
2018-08-13T01:24:41.988Z,28.94
2018-08-13T01:27:21.681Z,28.89
2018-08-13T01:32:52.088Z,28.89
2018-08-13T01:35:28.755Z,28.97
2018-08-13T01:38:04.711Z,29.04
2018-08-13T01:40:40.760Z,29.13
2018-08-13T01:43:16.675Z,29.16
2018-08-13T01:45:54.416Z,29.20
2018-08-13T01:48:30.636Z,29.13
2018-08-13T01:51:06.696Z,29.06
2018-08-13T01:53:44.211Z,29.00
2018-08-13T01:56:20.143Z,28.98
2018-08-13T01:58:56.405Z,28.99
2018-08-13T02:01:34.051Z,29.01
2018-08-13T02:04:09.970Z,29.02
2018-08-13T02:06:45.981Z,29.00
2018-08-13T02:09:21.966Z,29.04
2018-08-13T02:11:58.469Z,29.06
2018-08-13T02:14:36.096Z,29.07
2018-08-13T02:17:11.973Z,29.09
2018-08-13T02:19:47.739Z,29.09
2018-08-13T02:22:23.642Z,29.12
2018-08-13T02:24:59.687Z,29.04
2018-08-13T02:27:36.618Z,28.98
2018-08-13T02:30:15.413Z,28.95
2018-08-13T02:32:51.097Z,28.95
2018-08-13T02:35:27.106Z,28.98
2018-08-13T02:38:01.001Z,29.00
2018-08-13T02:40:36.985Z,29.00
2018-08-13T02:43:14.469Z,29.01
2018-08-13T02:45:50.919Z,29.01
2018-08-13T02:48:28.780Z,29.03
2018-08-13T02:51:04.423Z,29.04
2018-08-13T02:53:40.428Z,29.06
2018-08-13T02:56:14.190Z,29.10
2018-08-13T02:58:50.350Z,29.07
2018-08-13T03:01:29.293Z,29.13
2018-08-13T03:04:07.323Z,29.13
2018-08-13T03:06:44.760Z,29.15
2018-08-13T03:09:20.989Z,29.16
2018-08-13T03:11:58.472Z,29.13
2018-08-13T03:14:34.361Z,29.17
2018-08-13T03:17:12.127Z,29.19
2018-08-13T03:19:49.732Z,29.19
2018-08-13T03:22:26.885Z,29.20
2018-08-13T03:25:04.004Z,29.21
2018-08-13T03:27:40.731Z,29.22
2018-08-13T03:30:19.008Z,29.22
2018-08-13T03:32:55.678Z,29.21
2018-08-13T03:35:31.606Z,29.22
2018-08-13T03:38:07.495Z,29.23
2018-08-13T03:40:45.006Z,29.19
2018-08-13T03:43:22.124Z,29.19
2018-08-13T03:45:58.228Z,29.15
2018-08-13T03:48:35.054Z,29.20
2018-08-13T03:51:10.971Z,29.22
2018-08-13T03:53:46.905Z,29.31
2018-08-13T03:56:23.128Z,29.30
2018-08-13T03:59:00.224Z,29.29
2018-08-13T04:01:37.204Z,29.26
2018-08-13T04:04:12.761Z,29.26
2018-08-13T04:06:51.040Z,29.24
2018-08-13T04:09:26.725Z,29.23
2018-08-13T04:12:03.027Z,29.06
2018-08-13T04:14:39.931Z,28.93
2018-08-13T04:17:15.402Z,28.98
2018-08-13T04:19:51.032Z,29.05
2018-08-13T04:22:29.593Z,29.15
2018-08-13T04:26:43.224Z,29.29
2018-08-13T04:29:19.019Z,29.36
2018-08-13T04:31:55.236Z,29.43
2018-08-13T04:34:31.047Z,29.48
2018-08-13T04:37:07.063Z,29.53
2018-08-13T04:39:40.816Z,29.56
2018-08-13T04:42:18.234Z,29.60
2018-08-13T04:44:53.876Z,29.61
2018-08-13T04:47:29.490Z,29.64
2018-08-13T04:50:05.027Z,29.68
2018-08-13T04:52:42.373Z,29.70
2018-08-13T04:55:18.230Z,29.73
2018-08-13T04:57:54.147Z,29.74
2018-08-13T05:00:30.243Z,29.77
2018-08-13T05:03:04.535Z,29.80
2018-08-13T05:05:42.431Z,29.82
2018-08-13T05:08:20.405Z,29.81
2018-08-13T05:10:59.428Z,29.85
2018-08-13T05:16:33.960Z,29.88
2018-08-13T05:19:10.052Z,29.90
2018-08-13T05:21:47.839Z,29.91
2018-08-13T05:24:23.824Z,29.94
2018-08-13T05:27:01.271Z,29.94
2018-08-13T05:32:11.044Z,29.97
2018-08-13T05:34:49.955Z,30.00
2018-08-13T05:37:27.054Z,30.02
2018-08-13T05:40:02.860Z,30.04
2018-08-13T05:42:43.161Z,30.07
2018-08-13T05:45:17.965Z,30.10
2018-08-13T05:47:54.964Z,30.10
2018-08-13T05:50:31.748Z,30.12
2018-08-13T05:53:05.638Z,30.13
2018-08-13T05:55:42.355Z,30.15
2018-08-13T05:58:16.016Z,30.16
2018-08-13T06:00:53.305Z,30.18
2018-08-13T06:03:30.059Z,30.19
2018-08-13T06:06:05.820Z,30.21
2018-08-13T06:08:42.871Z,30.22
2018-08-13T06:11:18.936Z,30.23
2018-08-13T06:13:54.888Z,30.25
2018-08-13T06:16:33.929Z,30.26
2018-08-13T06:19:11.773Z,30.27
2018-08-13T06:21:48.973Z,30.27
2018-08-13T06:24:24.842Z,30.27
2018-08-13T06:27:01.642Z,30.28
2018-08-13T06:29:37.449Z,30.31
2018-08-13T06:32:14.836Z,30.30
2018-08-13T06:34:55.071Z,30.32
2018-08-13T06:37:30.845Z,30.34
2018-08-13T06:40:08.489Z,30.34
2018-08-13T06:42:44.969Z,30.37
2018-08-13T06:45:21.720Z,30.37
2018-08-13T06:47:58.871Z,30.38
2018-08-13T06:50:37.098Z,30.33
2018-08-13T06:53:13.838Z,30.26
2018-08-13T06:55:51.851Z,30.16
2018-08-13T06:58:29.735Z,30.09
2018-08-13T07:01:04.494Z,30.01
2018-08-13T07:03:39.201Z,29.97
2018-08-13T07:06:16.221Z,29.91
2018-08-13T07:08:51.806Z,29.87
2018-08-13T07:11:30.278Z,29.85
2018-08-13T07:14:06.038Z,29.82
2018-08-13T07:16:43.484Z,29.79
2018-08-13T07:19:20.986Z,29.78
2018-08-13T07:21:58.280Z,29.75
2018-08-13T07:24:35.208Z,29.72
2018-08-13T07:27:13.098Z,29.73
2018-08-13T07:29:50.085Z,29.71
2018-08-13T07:32:26.894Z,29.71
2018-08-13T07:35:05.108Z,29.69
2018-08-13T07:37:42.126Z,29.68
2018-08-13T07:40:22.307Z,29.68
2018-08-13T07:42:59.271Z,29.68
2018-08-13T07:45:36.718Z,29.65
2018-08-13T07:48:14.116Z,29.63
2018-08-13T07:50:50.810Z,29.61
2018-08-13T07:53:28.518Z,29.60
2018-08-13T07:56:05.488Z,29.59
2018-08-13T07:58:40.286Z,29.57
2018-08-13T08:01:17.121Z,29.59
2018-08-13T08:03:54.239Z,29.57
2018-08-13T08:06:31.130Z,29.55
2018-08-13T08:09:10.266Z,29.54
2018-08-13T08:11:47.281Z,29.52
2018-08-13T08:14:22.029Z,29.54
2018-08-13T08:16:59.004Z,29.51
2018-08-13T08:19:36.229Z,29.51
2018-08-13T08:22:19.910Z,29.48
2018-08-13T08:24:56.749Z,29.49
2018-08-13T08:27:34.463Z,29.49
2018-08-13T08:30:12.974Z,29.47
2018-08-13T08:32:50.397Z,29.46
2018-08-13T08:35:27.782Z,29.46
2018-08-13T08:38:05.488Z,29.45
2018-08-13T08:40:43.237Z,29.43
2018-08-13T08:43:21.230Z,29.44
2018-08-13T08:45:58.790Z,29.44
2018-08-13T08:48:35.909Z,29.45
2018-08-13T08:51:13.231Z,29.44
2018-08-13T08:53:51.469Z,29.45
2018-08-13T08:56:28.611Z,29.47
2018-08-13T08:59:05.529Z,29.48
2018-08-13T09:01:43.908Z,29.49
2018-08-13T09:04:20.900Z,29.47
2018-08-13T09:06:59.240Z,29.45
2018-08-13T09:09:36.889Z,29.44
2018-08-13T09:12:15.467Z,29.42
2018-08-13T09:14:50.669Z,29.42
2018-08-13T09:17:37.339Z,29.40
2018-08-13T09:20:28.333Z,29.38
2018-08-13T09:23:19.465Z,29.37
2018-08-13T09:26:09.487Z,29.36
2018-08-13T09:28:59.909Z,29.34
2018-08-13T09:32:20.850Z,29.34
2018-08-13T09:35:23.487Z,29.32
2018-08-13T09:38:00.500Z,29.31
2018-08-13T09:40:38.804Z,29.29
2018-08-13T09:43:16.247Z,29.28
2018-08-13T09:45:54.942Z,29.27
2018-08-13T09:48:32.392Z,29.28
2018-08-13T09:51:07.824Z,29.27
2018-08-13T09:53:46.121Z,29.26
2018-08-13T09:56:22.767Z,29.27
2018-08-13T09:59:00.501Z,29.26
2018-08-13T10:01:37.804Z,29.27
2018-08-13T10:04:14.938Z,29.27
2018-08-13T10:06:51.886Z,29.29
2018-08-13T10:09:29.793Z,29.30
2018-08-13T10:12:07.073Z,29.31
2018-08-13T10:14:44.396Z,29.29
2018-08-13T10:17:21.350Z,29.30
2018-08-13T10:19:58.580Z,29.30
2018-08-13T10:22:35.374Z,29.30
2018-08-13T10:25:13.272Z,29.30
2018-08-13T10:27:50.822Z,29.30
2018-08-13T10:30:28.574Z,29.29
2018-08-13T10:33:06.629Z,29.28
2018-08-13T10:35:41.796Z,29.28
2018-08-13T10:38:18.960Z,29.26
2018-08-13T10:40:56.438Z,29.27
2018-08-13T10:43:34.411Z,29.25
2018-08-13T10:46:12.179Z,29.24
2018-08-13T10:48:47.484Z,29.24
2018-08-13T10:51:24.540Z,29.23
2018-08-13T10:54:02.194Z,29.23
2018-08-13T10:56:39.681Z,29.24
2018-08-13T10:59:18.393Z,29.24
2018-08-13T11:01:56.186Z,29.24
2018-08-13T11:04:33.023Z,29.22
2018-08-13T11:07:10.030Z,29.22
2018-08-13T11:09:48.777Z,29.19
2018-08-13T11:12:25.357Z,29.19
2018-08-13T11:15:02.188Z,29.19
2018-08-13T11:17:38.923Z,29.17
2018-08-13T11:20:17.801Z,29.16
2018-08-13T11:22:54.621Z,29.16
2018-08-13T11:25:31.967Z,29.15
2018-08-13T11:28:09.660Z,29.15
2018-08-13T11:30:47.412Z,29.15
2018-08-13T11:33:22.501Z,29.16
2018-08-13T11:35:59.373Z,29.14
2018-08-13T11:38:36.915Z,29.14
2018-08-13T11:41:14.515Z,29.15
2018-08-13T11:43:53.927Z,29.14
2018-08-13T11:46:31.220Z,29.17
2018-08-13T11:49:09.457Z,29.18
2018-08-13T11:51:44.925Z,29.16
2018-08-13T11:54:22.129Z,29.14
2018-08-13T11:56:59.305Z,29.16
2018-08-13T11:59:36.539Z,29.17
2018-08-13T12:02:14.186Z,29.16
2018-08-13T12:04:51.439Z,29.18
2018-08-13T12:07:29.508Z,29.17
2018-08-13T12:10:07.187Z,29.17
2018-08-13T12:12:44.920Z,29.17
2018-08-13T12:15:21.871Z,29.16
2018-08-13T12:17:59.456Z,29.16
2018-08-13T12:20:37.217Z,29.16
2018-08-13T12:23:14.683Z,29.15
2018-08-13T12:25:49.759Z,29.16
2018-08-13T12:28:27.588Z,29.14
2018-08-13T12:31:04.947Z,29.15
2018-08-13T12:33:41.986Z,29.13
2018-08-13T12:36:21.313Z,29.14
2018-08-13T12:38:58.412Z,29.16
2018-08-13T12:41:36.204Z,29.14
2018-08-13T12:44:13.071Z,29.13
2018-08-13T12:46:50.311Z,29.11
2018-08-13T12:49:28.391Z,29.10
2018-08-13T12:52:05.291Z,29.09
2018-08-13T12:54:42.712Z,29.10
2018-08-13T12:57:19.899Z,29.09
2018-08-13T12:59:57.320Z,29.09
2018-08-13T13:02:34.932Z,29.11
2018-08-13T13:05:13.092Z,29.10
2018-08-13T13:07:52.076Z,29.11
2018-08-13T13:10:29.554Z,29.12
2018-08-13T13:13:07.121Z,29.10
2018-08-13T13:15:45.681Z,29.10
2018-08-13T13:18:22.373Z,29.09
2018-08-13T13:20:59.202Z,29.08
2018-08-13T13:23:36.255Z,29.07
2018-08-13T13:26:13.072Z,29.06
2018-08-13T13:28:50.895Z,29.05
2018-08-13T13:31:28.088Z,29.06
2018-08-13T13:34:05.745Z,29.06
2018-08-13T13:36:42.867Z,29.08
2018-08-13T13:39:19.671Z,29.07
2018-08-13T13:44:49.542Z,29.01
2018-08-13T13:47:27.686Z,29.02
2018-08-13T13:50:05.212Z,29.03
2018-08-13T13:52:42.029Z,29.04
2018-08-13T13:55:19.416Z,29.05
2018-08-13T13:57:53.982Z,29.06
2018-08-13T14:00:32.339Z,29.04
2018-08-13T14:03:10.088Z,29.06
2018-08-13T14:05:48.343Z,29.06
2018-08-13T14:08:25.715Z,29.05
2018-08-13T14:11:02.967Z,29.05
2018-08-13T14:13:40.246Z,29.04
2018-08-13T14:16:18.019Z,29.04
2018-08-13T14:18:55.429Z,29.05
2018-08-13T14:21:33.425Z,29.06
2018-08-13T14:24:10.491Z,29.01
2018-08-13T14:26:47.254Z,28.99
2018-08-13T14:29:25.645Z,28.98
2018-08-13T14:32:00.892Z,28.97
2018-08-13T14:34:38.285Z,28.53
2018-08-13T14:37:15.470Z,28.45
2018-08-13T14:39:52.715Z,28.51
2018-08-13T14:42:30.845Z,28.59
2018-08-13T14:45:07.993Z,28.67
2018-08-13T14:47:44.695Z,28.74
2018-08-13T14:50:20.138Z,28.77
2018-08-13T14:52:56.711Z,28.81
2018-08-13T14:55:33.263Z,28.82
2018-08-13T15:01:05.480Z,28.87
2018-08-13T15:03:40.357Z,28.88
2018-08-13T15:06:16.006Z,28.89
2018-08-13T15:08:51.906Z,28.91
2018-08-13T15:11:32.012Z,28.93
2018-08-13T15:14:08.252Z,28.94
2018-08-13T15:16:45.065Z,28.95
2018-08-13T15:19:22.443Z,29.01
2018-08-13T15:21:59.296Z,29.03
2018-08-13T15:24:36.453Z,29.04
2018-08-13T15:27:11.219Z,28.96
2018-08-13T15:29:47.389Z,29.01
2018-08-13T15:32:25.949Z,29.06
2018-08-13T15:35:02.584Z,29.07
2018-08-13T15:37:40.448Z,29.06
2018-08-13T15:40:17.955Z,29.04
2018-08-13T15:42:55.322Z,28.96
2018-08-13T15:45:32.263Z,28.95
2018-08-13T15:48:08.889Z,28.97
2018-08-13T15:50:46.650Z,28.97
2018-08-13T15:53:24.276Z,28.98
2018-08-13T15:56:01.670Z,28.97
2018-08-13T15:58:38.259Z,28.96
2018-08-13T16:01:15.732Z,28.95
2018-08-13T16:03:52.299Z,28.95
2018-08-13T16:06:30.449Z,28.95
2018-08-13T16:09:08.686Z,28.95
2018-08-13T16:11:46.026Z,28.94
2018-08-13T16:14:23.494Z,28.95
2018-08-13T16:17:01.269Z,28.95
2018-08-13T16:19:39.172Z,28.95
2018-08-13T16:22:15.971Z,28.96
2018-08-13T16:24:53.004Z,28.97
2018-08-13T16:27:29.709Z,28.96
2018-08-13T16:30:08.704Z,28.96
2018-08-13T16:32:46.297Z,28.96
2018-08-13T16:35:23.896Z,28.96
2018-08-13T16:38:00.397Z,28.97
2018-08-13T16:40:37.482Z,28.96
2018-08-13T16:43:14.515Z,28.97
2018-08-13T16:45:52.271Z,28.97
2018-08-13T16:48:28.952Z,28.97
2018-08-13T16:51:07.072Z,28.96
2018-08-13T16:56:35.984Z,28.96
2018-08-13T16:59:13.093Z,28.96
2018-08-13T17:01:50.662Z,28.95
2018-08-13T17:04:27.292Z,28.97
2018-08-13T17:07:04.611Z,28.97
2018-08-13T17:09:41.712Z,28.98
2018-08-13T17:12:19.279Z,28.97
2018-08-13T17:14:56.680Z,28.98
2018-08-13T17:17:34.880Z,28.98
2018-08-13T17:20:56.311Z,28.93
2018-08-13T17:23:34.310Z,28.96
2018-08-13T17:26:12.127Z,28.97
2018-08-13T17:28:50.103Z,28.98
2018-08-13T17:31:27.080Z,28.99
2018-08-13T17:34:04.498Z,28.99
2018-08-13T17:36:42.413Z,29.00
2018-08-13T17:39:19.700Z,29.00
2018-08-13T17:41:57.233Z,29.01
2018-08-13T17:44:34.761Z,29.01
2018-08-13T17:47:12.521Z,29.01
2018-08-13T17:49:49.545Z,29.01
2018-08-13T17:52:26.680Z,29.03
2018-08-13T17:55:04.415Z,29.03
2018-08-13T17:57:41.720Z,29.04
2018-08-13T18:00:25.736Z,29.04
2018-08-13T18:03:03.056Z,29.06
2018-08-13T18:05:41.169Z,29.05
2018-08-13T18:08:18.628Z,29.07
2018-08-13T18:10:55.709Z,29.06
2018-08-13T18:13:32.564Z,29.04
2018-08-13T18:16:10.217Z,29.06
2018-08-13T18:18:47.164Z,29.09
2018-08-13T18:21:25.188Z,29.10
2018-08-13T18:24:02.310Z,29.10
2018-08-13T18:26:39.746Z,29.11
2018-08-13T18:29:18.005Z,29.11
2018-08-13T18:31:54.902Z,29.12
2018-08-13T18:34:32.313Z,29.12
2018-08-13T18:37:09.053Z,29.14
2018-08-13T18:39:45.788Z,29.14
2018-08-13T18:42:22.701Z,29.14
2018-08-13T18:45:00.089Z,29.15
2018-08-13T18:47:37.982Z,29.15
2018-08-13T18:50:18.972Z,29.17
2018-08-13T18:52:56.793Z,29.17
2018-08-13T18:55:31.229Z,29.17
2018-08-13T18:58:08.754Z,29.16
2018-08-13T19:00:46.767Z,29.16
2018-08-13T19:03:25.356Z,29.17
2018-08-13T19:06:03.754Z,29.17
2018-08-13T19:08:42.549Z,29.18
2018-08-13T19:11:19.682Z,29.17
2018-08-13T19:13:57.323Z,29.19
2018-08-13T19:16:33.900Z,29.17
2018-08-13T19:19:12.036Z,29.19
2018-08-13T19:21:49.037Z,29.19
2018-08-13T19:24:26.541Z,29.20
2018-08-13T19:27:03.336Z,29.21
2018-08-13T19:29:40.452Z,29.22
2018-08-13T19:32:17.566Z,29.23
2018-08-13T19:34:54.453Z,29.23
2018-08-13T19:37:29.996Z,29.25
2018-08-13T19:40:07.005Z,29.26
2018-08-13T19:42:44.461Z,29.26
2018-08-13T19:45:22.451Z,29.26
2018-08-13T19:48:00.451Z,29.26
2018-08-13T19:50:37.593Z,29.27
2018-08-13T19:53:14.622Z,29.28
2018-08-13T19:55:52.009Z,29.28
2018-08-13T19:58:29.086Z,29.27
2018-08-13T20:01:06.765Z,29.28
2018-08-13T20:03:44.045Z,29.27
2018-08-13T20:06:21.067Z,29.27
2018-08-13T20:08:58.277Z,29.27
2018-08-13T20:11:35.701Z,29.28
2018-08-13T20:14:12.815Z,29.28
2018-08-13T20:16:49.805Z,29.28
2018-08-13T20:19:27.574Z,29.30
2018-08-13T20:22:02.815Z,29.28
2018-08-13T20:24:40.133Z,29.28
2018-08-13T20:27:17.541Z,29.28
2018-08-13T20:29:54.939Z,29.28
2018-08-13T20:32:30.027Z,29.30
2018-08-13T20:35:07.059Z,29.30
2018-08-13T20:37:45.268Z,29.30
2018-08-13T20:40:23.360Z,29.30
2018-08-13T20:43:00.547Z,29.29
2018-08-13T20:45:37.559Z,29.30
2018-08-13T20:48:14.358Z,29.33
2018-08-13T20:50:52.018Z,29.33
2018-08-13T20:53:28.807Z,29.33
2018-08-13T20:56:06.573Z,29.33
2018-08-13T20:58:43.318Z,29.34
2018-08-13T21:01:20.542Z,29.34
2018-08-13T21:03:58.266Z,29.34
2018-08-13T21:09:31.868Z,29.35
2018-08-13T21:12:09.093Z,29.35
2018-08-13T21:14:46.832Z,29.35
2018-08-13T21:17:23.818Z,29.34
2018-08-13T21:20:00.815Z,29.33
2018-08-13T21:22:39.417Z,29.34
2018-08-13T21:25:17.719Z,29.36
2018-08-13T21:27:54.755Z,29.35
2018-08-13T21:30:32.686Z,29.35
2018-08-13T21:33:10.241Z,29.36
2018-08-13T21:35:47.489Z,29.35
2018-08-13T21:38:26.987Z,29.37
2018-08-13T21:41:04.429Z,29.37
2018-08-13T21:43:41.388Z,29.37
2018-08-13T21:46:18.603Z,29.40
2018-08-13T21:48:55.872Z,29.40
2018-08-13T21:51:32.827Z,29.40
2018-08-13T21:54:10.086Z,29.41
2018-08-13T21:56:47.264Z,29.42
2018-08-13T21:59:24.497Z,29.41
2018-08-13T22:02:02.005Z,29.43
2018-08-13T22:04:37.733Z,29.42
2018-08-13T22:07:15.185Z,29.44
2018-08-13T22:09:53.019Z,29.43
2018-08-13T22:12:30.090Z,29.43
2018-08-13T22:15:14.266Z,29.43
2018-08-13T22:17:51.423Z,29.44
2018-08-13T22:20:29.413Z,29.44
2018-08-13T22:23:07.745Z,29.43
2018-08-13T22:25:50.939Z,29.45
2018-08-13T22:28:28.118Z,29.43
2018-08-13T22:31:03.108Z,29.44
2018-08-13T22:33:40.491Z,29.45
2018-08-13T22:36:18.660Z,29.46
2018-08-13T22:38:55.396Z,29.46
2018-08-13T22:41:32.412Z,29.48
2018-08-13T22:44:09.268Z,29.47
2018-08-13T22:46:46.391Z,29.47
2018-08-13T22:49:24.134Z,29.46
2018-08-13T22:52:00.971Z,29.49
2018-08-13T22:54:37.596Z,29.49
2018-08-13T22:57:14.900Z,29.48
2018-08-13T22:59:51.731Z,29.49
2018-08-13T23:02:27.290Z,29.49
2018-08-13T23:05:05.204Z,29.49
2018-08-13T23:07:42.627Z,29.49
2018-08-13T23:10:22.835Z,29.49
2018-08-13T23:13:01.399Z,29.49
2018-08-13T23:15:40.098Z,29.50
2018-08-13T23:18:18.215Z,29.51
2018-08-13T23:20:56.572Z,29.51
2018-08-13T23:23:33.200Z,29.51
2018-08-13T23:26:10.902Z,29.51
2018-08-13T23:28:48.464Z,29.52
2018-08-13T23:31:25.216Z,29.50
2018-08-13T23:34:03.078Z,29.51
2018-08-13T23:36:41.878Z,29.52
2018-08-13T23:39:18.855Z,29.52
2018-08-13T23:41:55.812Z,29.52
2018-08-13T23:44:32.839Z,29.54
2018-08-13T23:47:09.836Z,29.48
2018-08-13T23:49:47.088Z,29.39
2018-08-13T23:52:23.688Z,29.34
2018-08-13T23:54:59.611Z,29.27
2018-08-13T23:57:35.308Z,29.19
